TAF KBHM
KBHM 072337Z 0800/0824 VRB04KT P6SM OVC050 FM080200 VRB03KT P6SM OVC016 FM080700 00000KT P6SM VCSH OVC009 PROB30 0809/0812 4SM -SHRA BR OVC004 FM081400 34005KT P6SM OVC011 FM081800 34005KT P6SM FEW040 AMD NOT SKED=
METAR KBHM
KBHM 080353Z 14006KT 10SM SCT010 OVC015 08/04 A3002 RMK AO2 SLP154 T00780039 ? ?
KBHM 080253Z 09004KT 10SM SCT010 OVC015 08/02 A3005 RMK AO2 SLP165 T00830022 56003 ?
SPECI KBHM 080207Z 07003KT 10SM FEW010 OVC015 08/02 A3005 RMK AO2 T00830022 ?
SPECI KBHM 080200Z RMK AO2 RVRNO ? ?
KBHM 080153Z 07003KT 10SM FEW010 OVC015 08/02 A3005 RMK AO2 SLP165 T00830022 ? ?
WC KBHM
WS KBHM
WV KBHM